Time;durP1;ratioP1;P1;durP2;ratioP2;P2;SDS_P1;SDS_P2;PMS_P1;PMS_P2;Temp;Humidity;BMP_temperature;BMP_pressure;BME280_temperature;BME280_humidity;BME280_pressure;Samples;Min_cycle;Max_cycle;Signal;HPM_P1;HPM_P2
2022/05/23 00:02:18;;;;;;;5.50;3.08;;;;;;;;;;4995956;28;20125;-78
2022/05/23 00:04:44;;;;;;;5.15;3.47;;;;;;;;;;5001587;28;20051;-78
2022/05/23 00:07:12;;;;;;;5.70;3.00;;;;;;;;;;4990654;28;20034;-78
2022/05/23 00:09:38;;;;;;;4.45;3.35;;;;;;;;;;4991148;28;20129;-78
2022/05/23 00:12:04;;;;;;;4.25;3.22;;;;;;;;;;4995996;28;20095;-78
2022/05/23 00:14:30;;;;;;;6.00;3.22;;;;;;;;;;4991818;28;20494;-78
2022/05/23 00:16:57;;;;;;;4.53;3.10;;;;;;;;;;4995911;28;20146;-79
2022/05/23 00:19:23;;;;;;;4.13;3.00;;;;;;;;;;4980172;28;20066;-78
2022/05/23 00:21:49;;;;;;;3.90;3.30;;;;;;;;;;4977664;28;20050;-78
2022/05/23 00:24:15;;;;;;;4.93;3.28;;;;;;;;;;5000630;28;20552;-78
2022/05/23 00:26:42;;;;;;;4.45;3.13;;;;;;;;;;4984528;28;20058;-78
2022/05/23 00:29:08;;;;;;;6.53;3.30;;;;;;;;;;4986481;28;20053;-78
2022/05/23 00:31:34;;;;;;;5.63;3.30;;;;;;;;;;4989619;28;20126;-78
2022/05/23 00:36:45;;;;;;;6.35;3.20;;;;;;;;;;4985390;28;20061;-78
2022/05/23 00:39:14;;;;;;;4.40;3.10;;;;;;;;;;4983511;28;20043;-78
2022/05/23 00:44:33;;;;;;;4.15;3.03;;;;;;;;;;4996165;28;20046;-78
2022/05/23 00:47:00;;;;;;;5.75;3.05;;;;;;;;;;4975322;28;20053;-78
2022/05/23 00:49:28;;;;;;;4.40;3.30;;;;;;;;;;4988393;28;20058;-78
2022/05/23 00:51:55;;;;;;;4.55;3.30;;;;;;;;;;4981588;28;20108;-79
2022/05/23 00:54:22;;;;;;;3.95;3.00;;;;;;;;;;4998228;28;20046;-78
2022/05/23 00:56:49;;;;;;;4.03;3.28;;;;;;;;;;4986131;28;20513;-78
2022/05/23 00:59:17;;;;;;;4.55;2.83;;;;;;;;;;4993031;28;20065;-79
2022/05/23 01:01:44;;;;;;;4.40;3.28;;;;;;;;;;4983616;28;20540;-78
2022/05/23 01:04:10;;;;;;;4.07;2.80;;;;;;;;;;4986245;28;20057;-78
2022/05/23 01:06:36;;;;;;;4.45;3.30;;;;;;;;;;4982693;28;20502;-78
2022/05/23 01:09:03;;;;;;;7.40;3.38;;;;;;;;;;5022192;28;20368;-78
2022/05/23 01:11:29;;;;;;;5.95;3.40;;;;;;;;;;4995729;28;20371;-78
2022/05/23 01:13:55;;;;;;;6.50;3.20;;;;;;;;;;4992412;28;20049;-78
2022/05/23 01:16:22;;;;;;;4.95;3.20;;;;;;;;;;5003881;28;20065;-78
2022/05/23 01:18:49;;;;;;;4.47;3.10;;;;;;;;;;4985176;28;20055;-78
2022/05/23 01:21:38;;;;;;;5.05;2.90;;;;;;;;;;5000898;28;20050;-78
2022/05/23 01:24:07;;;;;;;4.63;3.35;;;;;;;;;;4983670;28;20049;-78
2022/05/23 01:26:33;;;;;;;5.05;3.13;;;;;;;;;;5001599;28;20077;-78
2022/05/23 01:29:00;;;;;;;3.90;2.85;;;;;;;;;;5000167;28;20057;-78
2022/05/23 01:31:26;;;;;;;4.80;3.10;;;;;;;;;;4989709;28;20050;-78
2022/05/23 01:33:52;;;;;;;4.07;3.05;;;;;;;;;;4997329;28;20046;-78
2022/05/23 01:36:18;;;;;;;6.32;3.00;;;;;;;;;;4995637;28;20054;-78
2022/05/23 01:38:44;;;;;;;6.28;3.15;;;;;;;;;;4982633;28;20042;-78
2022/05/23 01:41:10;;;;;;;5.82;3.40;;;;;;;;;;4989736;28;20046;-78
2022/05/23 01:43:36;;;;;;;3.30;3.00;;;;;;;;;;4993308;28;20030;-78
2022/05/23 01:46:02;;;;;;;4.82;3.05;;;;;;;;;;5006311;28;20132;-78
2022/05/23 01:48:29;;;;;;;3.35;3.08;;;;;;;;;;4990631;28;20039;-78
2022/05/23 01:50:54;;;;;;;4.18;2.90;;;;;;;;;;4979266;28;20101;-79
2022/05/23 01:53:21;;;;;;;3.40;3.10;;;;;;;;;;4978328;28;21436;-79
2022/05/23 01:55:47;;;;;;;5.03;3.22;;;;;;;;;;5003161;28;20061;-78
2022/05/23 01:58:13;;;;;;;3.67;3.17;;;;;;;;;;5008410;28;20068;-79
2022/05/23 02:03:24;;;;;;;5.57;3.30;;;;;;;;;;4989861;28;20046;-78
2022/05/23 02:05:50;;;;;;;4.30;3.38;;;;;;;;;;4995550;28;20409;-78
2022/05/23 02:08:16;;;;;;;4.40;3.28;;;;;;;;;;4989377;28;20128;-78
2022/05/23 02:10:43;;;;;;;5.50;3.85;;;;;;;;;;4987424;28;20625;-78
2022/05/23 02:13:09;;;;;;;4.38;3.13;;;;;;;;;;4981846;28;20042;-78
2022/05/23 02:15:35;;;;;;;5.00;3.33;;;;;;;;;;4982081;28;20117;-78
2022/05/23 02:18:02;;;;;;;5.25;3.40;;;;;;;;;;5005979;28;20059;-78
2022/05/23 02:20:29;;;;;;;4.15;3.50;;;;;;;;;;4986530;28;20043;-78
2022/05/23 02:23:01;;;;;;;4.90;2.97;;;;;;;;;;4983814;28;20057;-78
2022/05/23 02:25:27;;;;;;;3.70;3.38;;;;;;;;;;4999425;28;20046;-77
2022/05/23 02:27:54;;;;;;;4.63;3.60;;;;;;;;;;4992070;28;20050;-78
2022/05/23 02:30:20;;;;;;;5.85;3.63;;;;;;;;;;4991029;28;20479;-78
2022/05/23 02:32:46;;;;;;;4.07;3.35;;;;;;;;;;4982406;28;20046;-78
2022/05/23 02:35:13;;;;;;;3.63;3.28;;;;;;;;;;5003610;28;20056;-78
2022/05/23 02:37:39;;;;;;;4.88;3.55;;;;;;;;;;4988957;28;20046;-78
2022/05/23 02:40:05;;;;;;;3.67;3.28;;;;;;;;;;4973586;28;20043;-78
2022/05/23 02:42:34;;;;;;;5.65;3.55;;;;;;;;;;4980456;28;20062;-77
2022/05/23 02:45:00;;;;;;;3.85;3.42;;;;;;;;;;4993535;28;20050;-78
2022/05/23 02:47:26;;;;;;;3.95;3.45;;;;;;;;;;4994505;28;20046;-77
2022/05/23 02:49:52;;;;;;;4.00;3.60;;;30.90;66.90;;;;;;4979963;28;20053;-78
2022/05/23 02:52:18;;;;;;;4.85;3.45;;;15.10;99.90;;;;;;4993724;28;20053;-77
2022/05/23 02:54:43;;;;;;;4.63;3.63;;;14.50;99.90;;;;;;4992340;28;20045;-78
2022/05/23 02:57:09;;;;;;;4.45;3.72;;;14.40;99.90;;;;;;4988445;28;20045;-78
2022/05/23 02:59:38;;;;;;;4.00;3.60;;;14.40;99.90;;;;;;4992908;28;20121;-78
2022/05/23 03:04:48;;;;;;;4.43;3.60;;;14.30;99.90;;;;;;5013028;28;20074;-78
2022/05/23 03:07:14;;;;;;;4.38;3.60;;;14.30;99.90;;;;;;4977879;28;20074;-78
2022/05/23 03:09:40;;;;;;;4.07;3.40;;;14.20;99.90;;;;;;4989993;28;20096;-78
2022/05/23 03:12:06;;;;;;;4.18;3.70;;;14.20;99.90;;;;;;4989936;28;20054;-78
2022/05/23 03:14:32;;;;;;;5.30;3.78;;;14.20;99.90;;;;;;4993762;28;20124;-78
2022/05/23 03:17:02;;;;;;;4.47;3.83;;;14.10;99.90;;;;;;5000304;28;20129;-78
2022/05/23 03:19:28;;;;;;;6.10;4.00;;;14.20;99.90;;;;;;4994075;28;20035;-78
2022/05/23 03:27:25;;;;;;;3.78;3.47;;;13.90;99.90;;;;;;4985617;28;20053;-78
2022/05/23 03:29:51;;;;;;;5.70;3.92;;;13.90;99.90;;;;;;4993872;28;20054;-78
2022/05/23 03:32:17;;;;;;;4.32;3.92;;;13.90;99.90;;;;;;4991243;28;20038;-78
2022/05/23 03:34:43;;;;;;;4.47;3.90;;;13.90;99.90;;;;;;4997310;28;20037;-78
2022/05/23 03:37:08;;;;;;;4.72;4.10;;;13.90;99.90;;;;;;4981771;28;20042;-78
2022/05/23 03:39:38;;;;;;;3.90;3.60;;;13.80;99.90;;;;;;4990257;28;20033;-78
2022/05/23 03:42:05;;;;;;;3.92;3.53;;;13.80;99.90;;;;;;4979608;28;20053;-78
2022/05/23 03:44:30;;;;;;;6.55;3.90;;;13.70;99.90;;;;;;4988510;28;20061;-78
2022/05/23 03:46:56;;;;;;;3.80;3.50;;;13.70;99.90;;;;;;4992305;28;20490;-78
2022/05/23 03:49:21;;;;;;;4.10;3.70;;;13.70;99.90;;;;;;4989448;28;20053;-79
2022/05/23 03:51:47;;;;;;;4.43;3.85;;;13.70;99.90;;;;;;4991601;28;20038;-78
2022/05/23 03:54:13;;;;;;;5.15;3.65;;;13.60;99.90;;;;;;4981247;28;20040;-78
2022/05/23 03:56:41;;;;;;;4.13;3.80;;;13.60;99.90;;;;;;4973678;28;20050;-78
2022/05/23 03:59:10;;;;;;;5.90;3.95;;;13.60;99.90;;;;;;4990698;28;20038;-78
2022/05/23 04:01:37;;;;;;;6.35;3.92;;;13.60;99.90;;;;;;4987684;28;20101;-78
2022/05/23 04:04:03;;;;;;;4.97;3.80;;;13.60;99.90;;;;;;4992798;28;20057;-78
2022/05/23 04:06:29;;;;;;;4.00;3.70;;;13.60;99.90;;;;;;4992498;28;20042;-78
2022/05/23 04:08:54;;;;;;;4.88;3.80;;;13.60;99.90;;;;;;4991440;28;20394;-78
2022/05/23 04:11:21;;;;;;;4.22;3.83;;;13.50;99.90;;;;;;4992204;28;20043;-79
2022/05/23 04:13:47;;;;;;;4.47;3.70;;;13.50;99.90;;;;;;4983056;28;20042;-78
2022/05/23 04:16:13;;;;;;;4.63;3.90;;;13.60;99.90;;;;;;4987332;28;20046;-78
2022/05/23 04:18:41;;;;;;;6.97;3.90;;;13.60;99.90;;;;;;4981407;28;20410;-78
2022/05/23 04:21:07;;;;;;;5.53;3.83;;;13.70;99.90;;;;;;5004906;28;20041;-78
2022/05/23 04:23:35;;;;;;;3.90;3.50;;;13.60;99.90;;;;;;5013996;28;20046;-78
2022/05/23 04:26:08;;;;;;;4.50;4.10;;;13.60;99.90;;;;;;5024452;28;20080;-78
2022/05/23 04:28:36;;;;;;;4.13;3.80;;;13.80;99.90;;;;;;4998067;28;20046;-78
2022/05/23 04:31:02;;;;;;;6.70;4.00;;;13.80;99.90;;;;;;4983778;28;20088;-78
2022/05/23 04:36:12;;;;;;;4.10;3.70;;;13.70;99.90;;;;;;4981857;28;20046;-78
2022/05/23 04:38:38;;;;;;;4.32;3.63;;;13.70;99.90;;;;;;4990804;28;20116;-78
2022/05/23 04:41:07;;;;;;;5.47;4.25;;;13.70;99.90;;;;;;4992892;28;20522;-78
2022/05/23 04:43:33;;;;;;;5.07;3.90;;;13.70;99.90;;;;;;5002205;28;20046;-78
2022/05/23 04:45:59;;;;;;;4.03;3.72;;;13.70;99.90;;;;;;4990025;28;20043;-78
2022/05/23 04:51:09;;;;;;;4.07;3.67;;;13.80;99.90;;;;;;4995132;28;20058;-78
2022/05/23 04:53:36;;;;;;;4.45;3.58;;;14.10;99.90;;;;;;4996440;28;20075;-78
2022/05/23 04:56:02;;;;;;;4.10;3.75;;;13.80;99.90;;;;;;4990275;28;20046;-78
2022/05/23 04:58:28;;;;;;;4.55;3.70;;;13.80;99.90;;;;;;4979017;28;20055;-78
2022/05/23 05:00:54;;;;;;;4.70;3.90;;;13.90;99.90;;;;;;4988851;28;20478;-78
2022/05/23 05:03:20;;;;;;;5.03;3.97;;;;;;;;;;4990075;28;20054;-78
2022/05/23 05:05:46;;;;;;;4.68;3.50;;;;;;;;;;4997401;28;20049;-78
2022/05/23 05:08:13;;;;;;;4.10;3.58;;;;;;;;;;4981072;28;20047;-78
2022/05/23 05:10:40;;;;;;;4.13;3.60;;;13.90;99.90;;;;;;4997453;28;20133;-78
2022/05/23 05:13:05;;;;;;;6.13;5.15;;;14.00;99.90;;;;;;4982086;28;20121;-78
2022/05/23 05:15:31;;;;;;;5.20;4.00;;;14.00;99.90;;;;;;4986354;28;20559;-78
2022/05/23 05:17:57;;;;;;;5.22;3.70;;;14.00;99.90;;;;;;4987647;28;20142;-78
2022/05/23 05:20:23;;;;;;;5.80;3.60;;;14.00;99.90;;;;;;4988744;28;20121;-78
2022/05/23 05:22:50;;;;;;;5.47;3.80;;;14.10;99.90;;;;;;4998398;28;20478;-78
2022/05/23 05:25:19;;;;;;;4.22;3.83;;;14.10;99.90;;;;;;4981817;28;20047;-78
2022/05/23 05:27:45;;;;;;;6.28;4.18;;;14.20;99.90;;;;;;4993746;28;20054;-78
2022/05/23 05:30:16;;;;;;;4.22;3.83;;;14.20;99.90;;;;;;4985513;28;20106;-78
2022/05/23 05:32:45;;;;;;;4.78;3.90;;;;;;;;;;4977654;28;20494;-78
2022/05/23 05:35:15;;;;;;;4.00;3.65;;;;;;;;;;5003815;28;20569;-78
2022/05/23 05:37:46;;;;;;;5.35;3.75;;;;;;;;;;4993792;28;20045;-78
2022/05/23 05:40:16;;;;;;;4.38;3.63;;;;;;;;;;5007873;28;20449;-78
2022/05/23 05:42:46;;;;;;;4.03;3.58;;;;;;;;;;4993558;28;20046;-78
2022/05/23 05:45:15;;;;;;;5.18;3.88;;;;;;;;;;4991185;28;20409;-78
2022/05/23 05:47:43;;;;;;;4.63;3.45;;;;;;;;;;4983650;28;20049;-78
2022/05/23 05:50:11;;;;;;;3.90;3.55;;;;;;;;;;5010007;28;20446;-78
2022/05/23 05:52:37;;;;;;;5.88;4.10;;;;;;;;;;5021630;28;20125;-78
2022/05/23 05:55:05;;;;;;;4.30;3.92;;;;;;;;;;4985923;28;20133;-78
2022/05/23 05:57:31;;;;;;;5.28;4.07;;;;;;;;;;5006074;28;20050;-79
2022/05/23 05:59:57;;;;;;;6.00;3.97;;;;;;;;;;4996057;28;20053;-78
2022/05/23 06:02:23;;;;;;;5.35;4.05;;;;;;;;;;4986002;28;20372;-79
2022/05/23 06:04:49;;;;;;;4.55;3.65;;;;;;;;;;5003750;28;20057;-77
2022/05/23 06:12:52;;;;;;;5.43;3.95;;;;;;;;;;4981375;28;20411;-79
2022/05/23 06:15:18;;;;;;;5.80;4.18;;;;;;;;;;5008525;28;20043;-79
2022/05/23 06:17:44;;;;;;;4.30;3.90;;;;;;;;;;4988399;28;20046;-79
2022/05/23 06:20:14;;;;;;;4.20;3.80;;;;;;;;;;4987460;28;20054;-79
2022/05/23 06:22:40;;;;;;;5.90;4.40;;;;;;;;;;4992382;28;20046;-79
2022/05/23 06:25:10;;;;;;;4.50;4.10;;;;;;;;;;4992403;28;20069;-79
2022/05/23 06:27:36;;;;;;;4.45;4.05;;;;;;;;;;4988266;28;20065;-79
2022/05/23 06:30:05;;;;;;;4.65;3.75;;;;;;;;;;5005048;28;20050;-79
2022/05/23 06:32:31;;;;;;;5.10;4.22;;;;;;;;;;4980078;28;20121;-79
2022/05/23 06:35:00;;;;;;;5.32;4.20;;;;;;;;;;4979194;28;20074;-79
2022/05/23 06:37:26;;;;;;;5.88;4.25;;;;;;;;;;4993781;28;20074;-79
2022/05/23 06:39:52;;;;;;;5.88;4.03;;;;;;;;;;4976273;28;20043;-79
2022/05/23 06:42:19;;;;;;;6.35;3.88;;;;;;;;;;4984805;28;20492;-78
2022/05/23 06:44:45;;;;;;;6.68;4.32;;;;;;;;;;4988743;28;20065;-79
2022/05/23 06:47:11;;;;;;;6.38;4.43;;;;;;;;;;4985523;28;20057;-80
2022/05/23 06:49:37;;;;;;;6.15;4.30;;;;;;;;;;5001106;28;20041;-79
2022/05/23 06:52:03;;;;;;;4.97;4.10;;;;;;;;;;5011527;28;20049;-80
2022/05/23 06:54:29;;;;;;;4.35;3.95;;;;;;;;;;4986766;28;20120;-79
2022/05/23 06:56:56;;;;;;;4.97;4.45;;;;;;;;;;4986432;28;20410;-79
2022/05/23 06:59:22;;;;;;;6.43;4.63;;;;;;;;;;4996724;28;20050;-79
2022/05/23 07:01:48;;;;;;;6.32;4.65;;;;;;;;;;4988826;28;20204;-80
2022/05/23 07:04:14;;;;;;;5.82;4.65;;;;;;;;;;4997119;28;20513;-79
2022/05/23 07:12:20;;;;;;;5.78;4.40;;;;;;;;;;4991663;28;20505;-79
2022/05/23 07:14:46;;;;;;;7.63;4.60;;;;;;;;;;4997278;28;20050;-79
2022/05/23 07:17:12;;;;;;;5.05;4.60;;;;;;;;;;4999210;28;20415;-79
2022/05/23 07:19:42;;;;;;;5.85;4.18;;;;;;;;;;4998338;28;20077;-79
2022/05/23 07:22:08;;;;;;;5.07;4.40;;;;;;;;;;4988058;28;20101;-79
2022/05/23 07:24:34;;;;;;;5.05;4.40;;;;;;;;;;4996044;28;20482;-77
2022/05/23 07:27:01;;;;;;;6.38;4.38;;;;;;;;;;4983949;28;20075;-79
2022/05/23 07:29:27;;;;;;;6.90;4.82;;;;;;;;;;4996415;28;20806;-79
2022/05/23 07:31:54;;;;;;;4.93;4.35;;;;;;;;;;5005949;28;20046;-79
2022/05/23 07:34:20;;;;;;;7.35;5.20;;;;;;;;;;5001263;28;20108;-79
2022/05/23 07:36:48;;;;;;;8.45;5.47;;;;;;;;;;4994769;28;20085;-79
2022/05/23 07:39:14;;;;;;;6.05;4.93;;;;;;;;;;5000312;28;20046;-79
2022/05/23 07:41:41;;;;;;;5.30;4.80;;;;;;;;;;5002226;28;20121;-79
2022/05/23 07:44:08;;;;;;;5.45;4.95;;;;;;;;;;4999683;28;20476;-79
2022/05/23 07:46:34;;;;;;;5.47;4.97;;;;;;;;;;5003779;28;20106;-79
2022/05/23 07:49:00;;;;;;;6.10;4.75;;;;;;;;;;5004665;28;20038;-79
2022/05/23 07:51:30;;;;;;;7.18;5.40;;;;;;;;;;4996412;28;20046;-79
2022/05/23 08:02:17;;;;;;;6.28;5.00;;;;;;;;;;4996182;28;20046;-79
2022/05/23 08:04:43;;;;;;;5.80;5.00;;;;;;;;;;5004059;28;20096;-79
2022/05/23 08:07:09;;;;;;;6.47;5.40;;;;;;;;;;5001243;28;20486;-79
2022/05/23 08:09:36;;;;;;;5.55;5.03;;;;;;;;;;5001647;28;20045;-79
2022/05/23 08:12:04;;;;;;;8.65;5.32;;;;;;;;;;5000943;28;20058;-79
2022/05/23 08:14:30;;;;;;;7.47;5.18;;;;;;;;;;5001085;28;20050;-79
2022/05/23 08:16:56;;;;;;;5.85;5.15;;;;;;;;;;5004651;28;20053;-79
2022/05/23 08:19:22;;;;;;;6.55;5.05;;;;;;;;;;4994580;28;20131;-79
2022/05/23 08:21:51;;;;;;;8.82;5.80;;;;;;;;;;5006378;28;20069;-79
2022/05/23 08:24:17;;;;;;;6.85;5.20;;;;;;;;;;4994785;28;20043;-79
2022/05/23 08:26:43;;;;;;;6.72;5.53;;;;;;;;;;4997565;28;20214;-80
2022/05/23 08:29:10;;;;;;;11.52;5.70;;;;;;;;;;5001309;28;20485;-79
2022/05/23 08:31:39;;;;;;;5.55;4.57;;;;;;;;;;4986285;28;20045;-80
2022/05/23 08:34:06;;;;;;;7.45;5.85;;;;;;;;;;4992519;28;20390;-80
2022/05/23 08:36:32;;;;;;;7.63;5.72;;;;;;;;;;5004195;28;20046;-80
2022/05/23 08:38:59;;;;;;;7.35;5.38;;;;;;;;;;5004793;28;20057;-80
2022/05/23 08:41:36;;;;;;;6.72;5.57;;;;;;;;;;4993104;28;20086;-80
2022/05/23 08:44:11;;;;;;;7.55;5.60;;;;;;;;;;4999104;28;20057;-80
2022/05/23 08:46:52;;;;;;;7.82;5.93;;;;;;;;;;5002983;28;20126;-80
2022/05/23 08:49:25;;;;;;;6.97;5.20;;;;;;;;;;5001578;28;20061;-80
2022/05/23 08:52:06;;;;;;;8.38;5.47;;;;;;;;;;5000744;28;20100;-80
2022/05/23 08:54:39;;;;;;;6.18;5.57;;;;;;;;;;4999788;28;20053;-79
2022/05/23 08:57:05;;;;;;;6.05;5.50;;;;;;;;;;4996375;28;20042;-80
2022/05/23 08:59:39;;;;;;;6.53;5.40;;;;;;;;;;5013425;28;20367;-80
2022/05/23 09:02:09;;;;;;;7.28;5.95;;;;;;;;;;4997632;28;20482;-80
2022/05/23 09:04:45;;;;;;;7.05;6.05;;;;;;;;;;4999285;28;20088;-80
2022/05/23 09:07:14;;;;;;;7.32;5.93;;;;;;;;;;4999548;28;20474;-80
2022/05/23 09:09:40;;;;;;;6.35;5.63;;;;;;;;;;5001981;28;20157;-80
2022/05/23 09:12:12;;;;;;;8.45;6.78;;;;;;;;;;5006387;28;20049;-80
2022/05/23 09:14:38;;;;;;;6.70;6.00;;;;;;;;;;4991424;28;20396;-80
2022/05/23 09:17:07;;;;;;;6.47;5.88;;;;;;;;;;5007938;28;20045;-80
2022/05/23 09:19:40;;;;;;;7.00;6.30;;;;;;;;;;5006676;28;20121;-79
2022/05/23 09:22:13;;;;;;;6.68;5.90;;;;;;;;;;5000838;28;20241;-79
2022/05/23 09:24:50;;;;;;;6.55;5.80;;;;;;;;;;5005553;28;20045;-80
2022/05/23 09:27:16;;;;;;;7.07;5.97;;;;;;;;;;5006104;28;20084;-80
2022/05/23 09:29:42;;;;;;;6.47;5.88;;;;;;;;;;5004087;28;20437;-80
2022/05/23 09:32:17;;;;;;;7.70;6.28;;;;;;;;;;5006949;28;20199;-80
2022/05/23 09:34:50;;;;;;;8.30;6.05;;;;;;;;;;4996310;28;20117;-80
2022/05/23 09:37:20;;;;;;;7.43;5.78;;;;;;;;;;5005150;28;20441;-80
2022/05/23 09:39:53;;;;;;;7.25;5.88;;;;;;;;;;4996426;28;20054;-80
2022/05/23 09:48:07;;;;;;;7.55;6.03;;;;;;;;;;4998435;28;20046;-80
2022/05/23 09:50:38;;;;;;;7.32;6.20;;;;;;;;;;4998783;28;20517;-80
2022/05/23 09:53:05;;;;;;;8.02;5.93;;;;;;;;;;4999115;28;20046;-80
2022/05/23 09:55:33;;;;;;;7.72;6.40;;;;;;;;;;5001319;28;20482;-80
2022/05/23 09:57:59;;;;;;;8.10;6.53;;;;;;;;;;4996791;28;20071;-80
2022/05/23 10:00:25;;;;;;;7.32;6.22;;;;;;;;;;5000041;28;20046;-80
2022/05/23 10:02:53;;;;;;;7.57;6.63;;;;;;;;;;4999070;28;20494;-80
2022/05/23 10:05:24;;;;;;;7.53;6.78;;;;;;;;;;5002881;28;20534;-80
2022/05/23 10:07:52;;;;;;;9.25;7.20;;;;;;;;;;5004588;28;20113;-80
2022/05/23 10:10:17;;;;;;;8.52;6.43;;;;;;;;;;5002160;28;20050;-80
2022/05/23 10:12:44;;;;;;;8.48;7.47;;;;;;;;;;5001839;28;20050;-80
2022/05/23 10:15:19;;;;;;;8.75;6.93;;;;;;;;;;5005566;28;20065;-79
2022/05/23 10:17:57;;;;;;;7.72;6.85;;;;;;;;;;4987533;28;20105;-80
2022/05/23 10:20:25;;;;;;;11.23;7.60;;;;;;;;;;5000383;28;20112;-80
2022/05/23 10:22:56;;;;;;;7.47;6.43;;;;;;;;;;4995239;28;20042;-80
2022/05/23 10:25:24;;;;;;;7.05;6.35;;;;;;;;;;4991395;28;20085;-80
2022/05/23 10:27:55;;;;;;;7.72;5.93;;;;;;;;;;5001542;28;20108;-80
2022/05/23 10:30:30;;;;;;;7.53;6.57;;;;;;;;;;5000178;28;20908;-80
2022/05/23 10:33:08;;;;;;;7.50;6.70;;;;;;;;;;4986076;28;20046;-80
2022/05/23 10:35:37;;;;;;;9.00;7.07;;;;;;;;;;4993982;28;20050;-80
2022/05/23 10:43:40;;;;;;;8.80;7.40;;;;;;;;;;4985142;28;20051;-80
2022/05/23 10:46:07;;;;;;;8.60;7.80;;;;;;;;;;4992726;28;20149;-81
2022/05/23 10:48:40;;;;;;;9.32;7.45;;;;;;;;;;5000806;28;20410;-80
2022/05/23 10:51:15;;;;;;;9.10;7.20;;;;;;;;;;4991999;28;20482;-80
2022/05/23 10:53:41;;;;;;;7.57;6.82;;;;;;;;;;5001808;28;20376;-80
2022/05/23 10:56:07;;;;;;;7.05;6.45;;;;;;;;;;4987363;28;20107;-80
2022/05/23 10:58:40;;;;;;;8.43;6.70;;;;;;;;;;4995229;28;20622;-80
2022/05/23 11:01:22;;;;;;;10.18;9.23;;;;;;;;;;4996168;28;20081;-80
2022/05/23 11:03:51;;;;;;;11.43;9.25;;;;;;;;;;4993057;28;20054;-80
2022/05/23 11:06:22;;;;;;;10.27;9.25;;;;;;;;;;4998439;28;20471;-80
2022/05/23 11:08:56;;;;;;;10.98;9.07;;;;;;;;;;4985613;28;20100;-80
2022/05/23 11:11:28;;;;;;;10.63;9.52;;;;;;;;;;4999411;28;20103;-80
2022/05/23 11:14:12;;;;;;;10.77;9.38;;;;;;;;;;4992865;28;20046;-80
2022/05/23 11:16:48;;;;;;;10.18;8.88;;;;;;;;;;4999421;28;20053;-81
2022/05/23 11:19:37;;;;;;;10.38;9.38;;;;;;;;;;4987978;28;20427;-80
2022/05/23 11:22:06;;;;;;;12.98;9.52;;;;;;;;;;4992587;28;20045;-80
2022/05/23 11:24:51;;;;;;;14.45;11.57;;;;;;;;;;4986859;28;20139;-80
2022/05/23 11:35:52;;;;;;;11.13;10.13;;;;;;;;;;4992826;28;20051;-80
2022/05/23 11:38:20;;;;;;;12.60;10.98;;;;;;;;;;4992028;28;20042;-80
2022/05/23 11:41:04;;;;;;;12.60;11.13;;;;;;;;;;4996707;28;20077;-80
2022/05/23 11:43:31;;;;;;;12.38;11.07;;;;;;;;;;4990104;28;20050;-80
2022/05/23 11:45:57;;;;;;;12.85;11.55;;;;;;;;;;4995957;28;20171;-80
2022/05/23 11:48:29;;;;;;;12.88;11.07;;;;;;;;;;4985490;28;20097;-81
2022/05/23 11:51:11;;;;;;;12.23;11.00;;;;;;;;;;4987170;28;20081;-80
2022/05/23 11:53:40;;;;;;;12.27;10.43;;;;;;;;;;4993833;28;20042;-80
2022/05/23 11:56:09;;;;;;;12.90;11.23;;;;;;;;;;4985172;28;20052;-80
2022/05/23 11:58:47;;;;;;;11.18;10.05;;;;;;;;;;4994670;28;20050;-81
2022/05/23 12:01:22;;;;;;;10.85;9.90;;;;;;;;;;4985457;28;20054;-81
2022/05/23 12:03:55;;;;;;;12.20;10.88;;;;;;;;;;4992160;28;20076;-81
2022/05/23 12:06:24;;;;;;;11.90;10.10;;;;;;;;;;4996601;28;20042;-77
2022/05/23 12:08:59;;;;;;;11.00;10.00;;;;;;;;;;4994941;28;20172;-78
2022/05/23 12:11:27;;;;;;;12.48;11.18;;;;;;;;;;4990141;28;20054;-80
2022/05/23 12:13:58;;;;;;;12.05;10.80;;;;;;;;;;5002343;28;20058;-80
2022/05/23 12:16:34;;;;;;;11.32;10.32;;;;;;;;;;4996295;28;21224;-80
2022/05/23 12:19:06;;;;;;;12.43;10.90;;;;;;;;;;4996058;28;20054;-80
2022/05/23 12:21:35;;;;;;;12.75;11.55;;;;;;;;;;4991626;28;20050;-79
2022/05/23 12:24:25;;;;;;;11.80;10.63;;;;;;;;;;4995655;28;20056;-81
2022/05/23 12:26:53;;;;;;;11.57;10.48;;;;;;;;;;4990136;28;20083;-80
2022/05/23 12:29:22;;;;;;;13.25;10.52;;;;;;;;;;4995009;28;20049;-80
2022/05/23 12:32:00;;;;;;;12.75;11.60;;;;;;;;;;5003746;28;20045;-80
2022/05/23 12:34:26;;;;;;;12.57;11.27;;;;;;;;;;4996283;28;20513;-80
2022/05/23 12:36:52;;;;;;;12.93;11.57;;;;;;;;;;5003938;28;20097;-79
2022/05/23 12:39:39;;;;;;;12.52;11.27;;;;;;;;;;4986395;28;20046;-79
2022/05/23 12:42:14;;;;;;;13.27;11.98;;;;;;;;;;4997451;28;20133;-80
2022/05/23 12:44:57;;;;;;;13.45;12.05;;;;;;;;;;4999194;28;20073;-80
2022/05/23 12:47:26;;;;;;;13.32;11.95;;;;;;;;;;4997257;28;20132;-81
2022/05/23 12:50:08;;;;;;;13.38;11.98;;;;;;;;;;5000473;28;20447;-81
2022/05/23 12:52:43;;;;;;;13.52;12.00;;;;;;;;;;4999516;28;20122;-80
2022/05/23 12:55:23;;;;;;;16.23;12.95;;;;;;;;;;4996806;28;20050;-80
2022/05/23 12:57:55;;;;;;;13.77;12.48;;;;;;;;;;4994127;28;20043;-80
2022/05/23 13:00:41;;;;;;;13.18;11.82;;;;;;;;;;4993866;28;20052;-80
2022/05/23 13:03:08;;;;;;;15.00;13.27;;;;;;;;;;4984803;28;20493;-80
2022/05/23 13:05:34;;;;;;;15.00;13.52;;;;;;;;;;5000226;28;20042;-80
2022/05/23 13:08:06;;;;;;;14.50;13.05;;;;;;;;;;5000690;28;20048;-80
2022/05/23 13:10:34;;;;;;;14.05;12.77;;;;;;;;;;4993048;28;20102;-80
2022/05/23 13:13:05;;;;;;;14.98;13.07;;;;;;;;;;4997084;28;20081;-80
2022/05/23 13:15:32;;;;;;;15.43;13.82;;;;;;;;;;4998971;28;20122;-81
2022/05/23 13:23:30;;;;;;;14.68;13.30;;;;;;;;;;4984859;28;20057;-80
2022/05/23 13:25:56;;;;;;;14.38;13.07;;;;;;;;;;4995411;28;20449;-80
2022/05/23 13:28:23;;;;;;;15.23;13.80;;;;;;;;;;4994101;28;20528;-80
2022/05/23 13:30:50;;;;;;;14.90;13.60;;;;;;;;;;4998163;28;20042;-80
2022/05/23 13:33:21;;;;;;;15.10;13.70;;;;;;;;;;4995998;28;20042;-81
2022/05/23 13:35:48;;;;;;;15.85;14.15;;;;;;;;;;4997589;28;20138;-79
2022/05/23 13:38:21;;;;;;;16.10;14.50;;;;;;;;;;4990959;28;20128;-79
2022/05/23 13:40:49;;;;;;;16.30;14.25;;;;;;;;;;5003301;28;20046;-79
2022/05/23 13:43:20;;;;;;;15.82;14.25;;;;;;;;;;4994703;28;20058;-79
2022/05/23 13:45:49;;;;;;;14.88;13.43;;;;;;;;;;5018797;28;20530;-80
2022/05/23 13:48:19;;;;;;;16.95;13.90;;;;;;;;;;4997835;28;20046;-80
2022/05/23 13:50:52;;;;;;;14.05;12.75;;;;;;;;;;4990169;28;20070;-79
2022/05/23 13:53:18;;;;;;;;;;;;;;;;;;4999189;28;20486;-79
2022/05/23 13:55:47;;;;;;;14.55;13.15;;;;;;;;;;5032514;28;20011;-80
2022/05/23 13:58:24;;;;;;;15.23;13.80;;;;;;;;;;4999859;28;20104;-80
2022/05/23 14:00:52;;;;;;;15.68;14.10;;;;;;;;;;4986450;28;20053;-80
2022/05/23 14:03:23;;;;;;;15.75;13.60;;;;;;;;;;4991099;28;20052;-80
2022/05/23 14:05:50;;;;;;;14.48;12.88;;;;;;;;;;4998825;28;20054;-80
2022/05/23 14:08:21;;;;;;;15.38;13.93;;;;;;;;;;4993489;28;20050;-80
2022/05/23 14:10:47;;;;;;;14.57;13.25;;;;;;;;;;4996036;28;20046;-80
2022/05/23 14:13:17;;;;;;;16.05;13.32;;;;;;;;;;5001527;28;20053;-80
2022/05/23 14:15:47;;;;;;;14.57;13.18;;;;;;;;;;4994114;28;20041;-80
2022/05/23 14:18:19;;;;;;;15.27;13.77;;;;;;;;;;4998191;28;20085;-80
2022/05/23 14:20:50;;;;;;;15.00;13.52;;;;;;;;;;5003578;28;20073;-79
2022/05/23 14:23:16;;;;;;;14.55;13.25;;;;;;;;;;4994480;28;20053;-79
2022/05/23 14:25:46;;;;;;;14.32;12.88;;;;;;;;;;4999646;28;20124;-80
2022/05/23 14:28:20;;;;;;;14.15;12.77;;;;;;;;;;4995588;28;20057;-80
2022/05/23 14:30:51;;;;;;;14.95;13.57;;;;;;;;;;5019490;28;20049;-80
2022/05/23 14:33:35;;;;;;;14.38;12.90;;;;;;;;;;4993033;28;20072;-80
2022/05/23 14:36:03;;;;;;;13.93;12.57;;;;;;;;;;4996072;28;20219;-80
2022/05/23 14:38:42;;;;;;;14.57;12.75;;;;;;;;;;4999272;28;20061;-80
2022/05/23 14:41:27;;;;;;;13.85;12.55;;;;;;;;;;5002054;28;20073;-80
2022/05/23 14:44:19;;;;;;;14.00;12.57;;;;;;;;;;4999132;28;20053;-80
2022/05/23 14:47:02;;;;;;;14.35;12.85;;;;;;;;;;4981597;28;20125;-80
2022/05/23 14:49:32;;;;;;;15.13;12.38;;;;;;;;;;4992265;28;20086;-80
2022/05/23 14:51:58;;;;;;;14.65;13.10;;;;;;;;;;5001580;28;20046;-80
2022/05/23 15:00:37;;;;;;;14.95;13.45;;;;;;;;;;4994137;28;20049;-81
2022/05/23 15:02:59;;;;;;;16.10;14.43;;;;;;;;;;4994646;28;20088;-81
2022/05/23 15:05:25;;;;;;;16.25;14.57;;;;;;;;;;4995759;28;20082;-81
2022/05/23 15:08:01;;;;;;;16.27;14.77;;;;;;;;;;5002384;28;20041;-81
2022/05/23 15:10:28;;;;;;;16.58;14.85;;;;;;;;;;4976458;28;20133;-81
2022/05/23 15:12:55;;;;;;;16.80;15.07;;;;;;;;;;5000195;28;20057;-81
2022/05/23 15:15:21;;;;;;;16.73;15.13;;;;;;;;;;4996988;28;20104;-81
2022/05/23 15:17:47;;;;;;;16.42;14.70;;;;;;;;;;4992406;28;20049;-81
2022/05/23 15:20:13;;;;;;;16.35;14.75;;;;;;;;;;4998083;28;20052;-81
2022/05/23 15:22:41;;;;;;;17.08;15.30;;;;;;;;;;4999735;28;20141;-81
2022/05/23 15:25:09;;;;;;;16.52;14.98;;;;;;;;;;4992237;28;20529;-81
2022/05/23 15:27:35;;;;;;;15.93;14.38;;;;;;;;;;4999455;28;20050;-81
2022/05/23 15:30:09;;;;;;;16.55;14.95;;;;;;;;;;5002877;28;20485;-80
2022/05/23 15:32:36;;;;;;;15.60;14.07;;;;;;;;;;4983820;28;20191;-80
2022/05/23 15:35:03;;;;;;;17.38;15.57;;;;;;;;;;4995125;28;20378;-81
2022/05/23 15:37:29;;;;;;;17.85;16.02;;;;;;;;;;4993477;28;20050;-81